Time;durP1;ratioP1;P1;durP2;ratioP2;P2;SDS_P1;SDS_P2;PMS_P1;PMS_P2;Temp;Humidity;BMP_temperature;BMP_pressure;BME280_temperature;BME280_humidity;BME280_pressure;Samples;Min_cycle;Max_cycle;Signal;HPM_P1;HPM_P2
2022/04/13 00:01:06;;;;;;;2.23;1.23;;;;;;;;;;4956097;29;20212;-86
2022/04/13 00:03:34;;;;;;;5.57;2.40;;;;;;;;;;4955670;29;20210;-85
2022/04/13 00:06:03;;;;;;;7.13;1.77;;;;;;;;;;4955766;29;20259;-86
2022/04/13 00:08:32;;;;;;;5.77;2.97;;;;;;;;;;4955530;29;20209;-86
2022/04/13 00:11:01;;;;;;;2.10;1.57;;;;;;;;;;4956513;29;20196;-86
2022/04/13 00:13:29;;;;;;;3.07;2.13;;;;;;;;;;4941090;28;20201;-85
2022/04/13 00:15:59;;;;;;;2.03;1.90;;;;;;;;;;4954453;29;20207;-85
2022/04/13 00:18:28;;;;;;;2.57;1.27;;;;;;;;;;4936373;29;20209;-86
2022/04/13 00:20:56;;;;;;;3.90;2.60;;;;;;;;;;4955368;29;20216;-86
2022/04/13 00:23:24;;;;;;;1.53;1.43;;;;;;;;;;4955340;29;20220;-85
2022/04/13 00:25:53;;;;;;;4.20;2.27;;;;;;;;;;4955336;29;20296;-85
2022/04/13 00:28:22;;;;;;;4.03;1.80;;;;;;;;;;4955605;29;20212;-85
2022/04/13 00:30:51;;;;;;;3.23;2.93;;;;;;;;;;4938825;29;20214;-85
2022/04/13 00:33:21;;;;;;;1.70;1.40;;;;;;;;;;4935732;29;20211;-86
2022/04/13 00:35:49;;;;;;;4.93;2.67;;;;;;;;;;4952300;29;20212;-85
2022/04/13 00:38:19;;;;;;;4.80;2.97;;;;;;;;;;4936231;29;20216;-85
2022/04/13 00:40:47;;;;;;;8.17;3.23;;;;;;;;;;4936217;29;20201;-85
2022/04/13 00:43:16;;;;;;;6.60;2.57;;;;;;;;;;4936820;29;20310;-86
2022/04/13 00:45:45;;;;;;;4.77;2.97;;;;;;;;;;4936056;29;20216;-86
2022/04/13 00:48:18;;;;;;;7.37;3.40;;;;;;;;;;4954815;29;20210;-86
2022/04/13 00:50:48;;;;;;;5.40;2.27;;;;;;;;;;4955310;29;20208;-86
2022/04/13 00:53:17;;;;;;;2.77;2.53;;;;;;;;;;4955050;29;20200;-86
2022/04/13 00:55:46;;;;;;;1.77;1.67;;;;;;;;;;4956094;29;20248;-86
2022/04/13 00:58:14;;;;;;;8.60;3.90;;;;;;;;;;4955006;29;20201;-86
2022/04/13 01:00:48;;;;;;;0.80;0.80;;;;;;;;;;4954990;29;20201;-85
2022/04/13 01:03:17;;;;;;;1.30;1.20;;;;;;;;;;4955864;29;20236;-85
2022/04/13 01:05:47;;;;;;;4.60;2.20;;;;;;;;;;4954936;29;20229;-85
2022/04/13 01:08:18;;;;;;;2.03;1.27;;;;;;;;;;4970870;28;20204;-86
2022/04/13 01:10:47;;;;;;;2.63;2.30;;;;;;;;;;4955982;29;20204;-86
2022/04/13 01:13:16;;;;;;;8.13;2.90;;;;;;;;;;4954610;29;20199;-85
2022/04/13 01:15:45;;;;;;;2.70;1.80;;;;;;;;;;4970351;28;20208;-85
2022/04/13 01:18:14;;;;;;;2.03;1.90;;;;;;;;;;4954469;29;20206;-86
2022/04/13 01:20:51;;;;;;;2.57;2.33;;;;;;;;;;4949406;29;20247;-86
2022/04/13 01:23:21;;;;;;;4.03;3.63;;;;;;;;;;4935752;29;20231;-85
2022/04/13 01:25:50;;;;;;;2.63;1.53;;;;;;;;;;4939454;29;20248;-86
2022/04/13 01:28:18;;;;;;;1.23;1.23;;;;;;;;;;4939343;29;20209;-86
2022/04/13 01:30:47;;;;;;;0.77;0.77;;;;;;;;;;4939392;29;20209;-85
2022/04/13 01:33:16;;;;;;;0.57;0.57;;;;;;;;;;4955134;29;20225;-86
2022/04/13 01:35:44;;;;;;;3.10;2.20;;;;;;;;;;4955668;29;20257;-86
2022/04/13 01:38:13;;;;;;;1.43;1.33;;;;;;;;;;4940660;29;20217;-85
2022/04/13 01:40:44;;;;;;;5.20;3.67;;;;;;;;;;4939468;29;20205;-85
2022/04/13 01:43:12;;;;;;;4.23;3.43;;;;;;;;;;4955578;29;20233;-85
2022/04/13 01:45:41;;;;;;;1.67;1.60;;;;;;;;;;4939060;29;20226;-85
2022/04/13 01:48:10;;;;;;;2.10;1.67;;;;;;;;;;4939356;29;20220;-85
2022/04/13 01:50:38;;;;;;;8.43;2.50;;;;;;;;;;4954592;29;20264;-86
2022/04/13 01:53:07;;;;;;;2.33;1.70;;;;;;;;;;4939159;29;20202;-86
2022/04/13 01:55:35;;;;;;;5.90;3.00;;;;;;;;;;4954702;29;20201;-85
2022/04/13 01:58:05;;;;;;;1.97;1.63;;;;;;;;;;4938665;29;20210;-85
2022/04/13 02:00:34;;;;;;;3.60;3.00;;;;;;;;;;4938697;29;20205;-86
2022/04/13 02:03:02;;;;;;;5.83;3.70;;;;;;;;;;4939609;29;20279;-86
2022/04/13 02:05:32;;;;;;;6.90;3.50;;;;;;;;;;4938952;29;20284;-85
2022/04/13 02:08:01;;;;;;;4.20;3.80;;;;;;;;;;4939106;29;20213;-85
2022/04/13 02:10:30;;;;;;;3.00;2.63;;;;;;;;;;4954235;29;20200;-85
2022/04/13 02:12:58;;;;;;;1.97;1.87;;;;;;;;;;4938659;29;20225;-86
2022/04/13 02:15:29;;;;;;;3.40;2.87;;;;;;;;;;4938587;29;20209;-85
2022/04/13 02:17:57;;;;;;;11.57;6.67;;;;;;;;;;4954413;29;20220;-85
2022/04/13 02:20:26;;;;;;;2.67;2.47;;;;;;;;;;4942754;29;20289;-85
2022/04/13 02:22:54;;;;;;;1.10;0.97;;;;;;;;;;4957293;29;20215;-87
2022/04/13 02:25:23;;;;;;;2.43;1.73;;;;;;;;;;4957371;29;20244;-87
2022/04/13 02:27:51;;;;;;;4.07;2.23;;;;;;;;;;4957552;29;20204;-86
2022/04/13 02:30:19;;;;;;;5.87;4.17;;;;;;;;;;4958252;29;20204;-86
2022/04/13 02:32:49;;;;;;;5.57;4.33;;;;;;;;;;4957365;29;20204;-86
2022/04/13 02:35:17;;;;;;;3.83;2.60;;;;;;;;;;4956371;28;20212;-87
2022/04/13 02:37:46;;;;;;;3.83;2.63;;;;;;;;;;4957381;29;20227;-86
2022/04/13 02:40:14;;;;;;;3.37;2.90;;;;;;;;;;4973355;28;20200;-86
2022/04/13 02:42:43;;;;;;;9.03;4.33;;;;;;;;;;4957163;29;20213;-87
2022/04/13 02:45:11;;;;;;;2.30;2.10;;;;;;;;;;4958178;29;20223;-86
2022/04/13 02:47:40;;;;;;;4.23;3.53;;;;;;;;;;4958347;29;20231;-86
2022/04/13 02:50:10;;;;;;;5.30;4.20;;;;;;;;;;4956949;29;20206;-86
2022/04/13 02:52:39;;;;;;;1.83;1.73;;;;;;;;;;4957799;29;20199;-87
2022/04/13 02:55:10;;;;;;;2.80;2.40;;;;;;;;;;4958220;29;20204;-86
2022/04/13 02:57:38;;;;;;;6.60;4.47;;;;;;;;;;4957733;29;20312;-87
2022/04/13 03:00:09;;;;;;;9.50;3.67;;;;;;;;;;4956653;29;20197;-86
2022/04/13 03:02:39;;;;;;;7.13;4.10;;;;;;;;;;4956676;29;20216;-86
2022/04/13 03:05:10;;;;;;;8.43;5.80;;;;;;;;;;4956564;29;20243;-87
2022/04/13 03:07:38;;;;;;;7.33;4.73;;;;;;;;;;4957278;29;20205;-87
2022/04/13 03:10:08;;;;;;;5.23;3.33;;;;;;;;;;4956665;29;20207;-87
2022/04/13 03:12:36;;;;;;;2.10;1.90;;;;;;;;;;4956646;29;20207;-86
2022/04/13 03:15:10;;;;;;;0.97;0.97;;;;;;;;;;4956466;29;20208;-87
2022/04/13 03:17:38;;;;;;;5.27;4.77;;;;;;;;;;4956479;29;20201;-86
2022/04/13 03:20:07;;;;;;;3.27;3.07;;;;;;;;;;4954918;29;20208;-86
2022/04/13 03:22:37;;;;;;;4.60;3.60;;;;;;;;;;4953097;29;20215;-87
2022/04/13 03:25:06;;;;;;;6.33;3.37;;;;;;;;;;4954971;29;20227;-87
2022/04/13 03:27:34;;;;;;;2.47;2.23;;;;;;;;;;4940314;29;20279;-86
2022/04/13 03:30:03;;;;;;;2.17;2.00;;;;;;;;;;4940600;29;20216;-86
2022/04/13 03:32:36;;;;;;;4.00;3.37;;;;;;;;;;4940375;29;20211;-86
2022/04/13 03:35:05;;;;;;;5.33;3.07;;;;;;;;;;4957123;29;20200;-87
2022/04/13 03:37:33;;;;;;;5.40;4.87;;;;;;;;;;4957061;29;20208;-86
2022/04/13 03:40:04;;;;;;;5.63;2.40;;;;;;;;;;4939944;29;20208;-86
2022/04/13 03:42:34;;;;;;;1.63;1.53;;;;;;;;;;4940003;29;20218;-86
2022/04/13 03:45:03;;;;;;;5.80;3.47;;;;;;;;;;4956033;29;20235;-87
2022/04/13 03:47:31;;;;;;;4.43;3.20;;;;;;;;;;4938859;29;20208;-87
2022/04/13 03:50:00;;;;;;;1.13;1.13;;;;;;;;;;4939909;29;20204;-86
2022/04/13 03:52:28;;;;;;;3.30;2.60;;;;;;;;;;4956876;29;20227;-87
2022/04/13 03:54:57;;;;;;;11.43;5.37;;;;;;;;;;4956773;29;20247;-87
2022/04/13 03:57:26;;;;;;;5.13;4.27;;;;;;;;;;4940122;29;20212;-86
2022/04/13 03:59:55;;;;;;;4.50;2.40;;;;;;;;;;4939908;29;20200;-86
2022/04/13 04:02:23;;;;;;;10.37;4.73;;;;;;;;;;4957175;29;20207;-85
2022/04/13 04:04:52;;;;;;;4.23;1.93;;;;;;;;;;4955625;29;20216;-85
2022/04/13 04:07:20;;;;;;;2.47;2.03;;;;;;;;;;4956780;29;20218;-86
2022/04/13 04:09:50;;;;;;;7.60;2.83;;;;;;;;;;4939896;29;20213;-86
2022/04/13 04:12:18;;;;;;;0.50;0.50;;;;;;;;;;4955466;29;20207;-86
2022/04/13 04:14:48;;;;;;;10.63;6.83;;;;;;;;;;4939443;29;20216;-86
2022/04/13 04:17:16;;;;;;;5.20;3.60;;;;;;;;;;4939347;29;20291;-85
2022/04/13 04:19:45;;;;;;;9.47;5.90;;;;;;;;;;4956666;29;20203;-85
2022/04/13 04:22:15;;;;;;;4.50;4.07;;;;;;;;;;4958640;28;20213;-86
2022/04/13 04:24:43;;;;;;;4.33;3.70;;;;;;;;;;4958842;28;20533;-86
2022/04/13 04:27:11;;;;;;;3.20;2.90;;;;;;;;;;4958317;28;20246;-85
2022/04/13 04:29:40;;;;;;;1.47;1.33;;;;;;;;;;4958267;28;20210;-86
2022/04/13 04:32:10;;;;;;;5.10;2.23;;;;;;;;;;4958027;28;20195;-85
2022/04/13 04:34:38;;;;;;;5.87;5.33;;;;;;;;;;4958096;28;20257;-87
2022/04/13 04:37:07;;;;;;;5.20;3.53;;;;;;;;;;4957939;28;20219;-86
2022/04/13 04:39:35;;;;;;;2.57;2.30;;;;;;;;;;4958071;28;20203;-86
2022/04/13 04:42:05;;;;;;;6.40;4.07;;;;;;;;;;4958461;28;20215;-85
2022/04/13 04:44:33;;;;;;;6.33;4.57;;;;;;;;;;4958045;28;20224;-85
2022/04/13 04:47:01;;;;;;;6.03;1.60;;;;;;;;;;4958115;28;20214;-87
2022/04/13 04:49:31;;;;;;;3.40;2.13;;;;;;;;;;4975395;28;20231;-86
2022/04/13 04:52:00;;;;;;;3.17;2.87;;;;;;;;;;4958235;28;20202;-86
2022/04/13 04:54:28;;;;;;;5.97;4.20;;;;;;;;;;4957782;28;20206;-86
2022/04/13 04:56:56;;;;;;;1.77;1.67;;;;;;;;;;4957334;28;20203;-85
2022/04/13 04:59:25;;;;;;;4.17;2.93;;;;;;;;;;4957318;28;20199;-85
2022/04/13 05:01:53;;;;;;;3.20;2.60;;;;;;;;;;4957772;28;20204;-86
2022/04/13 05:04:22;;;;;;;3.57;3.27;;;;;;;;;;4957721;28;20208;-85
2022/04/13 05:06:52;;;;;;;2.67;2.47;;;;;;;;;;4974966;28;20243;-86
2022/04/13 05:09:22;;;;;;;6.67;2.80;;;;;;;;;;4957858;28;20218;-86
2022/04/13 05:11:50;;;;;;;4.70;3.70;;;;;;;;;;4957672;28;20200;-87
2022/04/13 05:14:20;;;;;;;1.87;1.80;;;;;;;;;;4958142;28;20223;-86
2022/04/13 05:16:49;;;;;;;1.40;1.40;;;;;;;;;;4957665;28;20207;-87
2022/04/13 05:19:18;;;;;;;6.60;3.90;;;;;;;;;;4957951;28;20251;-86
2022/04/13 05:21:46;;;;;;;3.10;2.20;;;;;;;;;;4954473;29;20207;-85
2022/04/13 05:24:16;;;;;;;1.17;1.17;;;;;;;;;;4938549;29;20208;-85
2022/04/13 05:26:47;;;;;;;0.60;0.60;;;;;;;;;;4938762;29;20244;-86
2022/04/13 05:29:16;;;;;;;5.43;2.90;;;;;;;;;;4938601;29;20210;-86
2022/04/13 05:31:44;;;;;;;4.47;3.63;;;;;;;;;;4938545;29;20246;-87
2022/04/13 05:34:13;;;;;;;8.23;5.00;;;;;;;;;;4955445;29;20200;-87
2022/04/13 05:36:42;;;;;;;1.67;1.57;;;;;;;;;;4938350;29;20204;-86
2022/04/13 05:39:10;;;;;;;2.20;2.00;;;;;;;;;;4938111;29;20262;-87
2022/04/13 05:41:41;;;;;;;6.57;4.73;;;;;;;;;;4938186;29;20306;-86
2022/04/13 05:44:09;;;;;;;6.37;3.87;;;;;;;;;;4938623;29;20266;-86
2022/04/13 05:46:38;;;;;;;2.53;2.37;;;;;;;;;;4955470;29;20289;-86
2022/04/13 05:49:06;;;;;;;2.97;2.70;;;;;;;;;;4937574;29;20198;-87
2022/04/13 05:51:35;;;;;;;11.70;6.33;;;;;;;;;;4954225;29;20203;-87
2022/04/13 05:54:03;;;;;;;1.23;1.23;;;;;;;;;;4955137;29;20207;-86
2022/04/13 05:56:32;;;;;;;2.00;1.80;;;;;;;;;;4937776;29;20199;-84
2022/04/13 05:59:01;;;;;;;9.90;5.13;;;;;;;;;;4937583;29;20278;-83
2022/04/13 06:01:30;;;;;;;3.27;3.07;;;;;;;;;;4953640;29;20207;-84
2022/04/13 06:03:58;;;;;;;4.30;3.90;;;;;;;;;;4954124;29;20203;-82
2022/04/13 06:06:28;;;;;;;2.27;2.10;;;;;;;;;;4937374;29;20266;-84
2022/04/13 06:08:57;;;;;;;5.87;4.07;;;;;;;;;;4954378;29;20209;-83
2022/04/13 06:11:26;;;;;;;4.87;4.33;;;;;;;;;;4938867;29;20209;-83
2022/04/13 06:13:54;;;;;;;7.83;3.83;;;;;;;;;;4957088;29;20210;-84
2022/04/13 06:16:24;;;;;;;8.40;5.77;;;;;;;;;;4940664;29;20199;-83
2022/04/13 06:18:52;;;;;;;5.03;4.23;;;;;;;;;;4940552;29;20263;-83
2022/04/13 06:21:21;;;;;;;4.60;2.87;;;;;;;;;;4949327;29;20230;-84
2022/04/13 06:23:50;;;;;;;7.47;6.60;;;;;;;;;;4940667;29;20208;-84
2022/04/13 06:26:19;;;;;;;4.80;2.60;;;;;;;;;;4939998;29;20250;-84
2022/04/13 06:28:47;;;;;;;8.07;4.27;;;;;;;;;;4940673;29;20205;-84
2022/04/13 06:31:15;;;;;;;9.23;4.13;;;;;;;;;;4940617;29;20279;-85
2022/04/13 06:33:45;;;;;;;4.60;4.17;;;;;;;;;;4940519;29;20251;-84
2022/04/13 06:36:14;;;;;;;4.33;2.97;;;;;;;;;;4940477;29;20293;-84
2022/04/13 06:38:43;;;;;;;3.63;3.17;;;;;;;;;;4940661;29;20219;-85
2022/04/13 06:41:11;;;;;;;4.90;3.57;;;;;;;;;;4940407;29;20200;-85
2022/04/13 06:43:40;;;;;;;4.00;2.87;;;;;;;;;;4940469;29;20228;-86
2022/04/13 06:46:09;;;;;;;5.63;3.30;;;;;;;;;;4940041;29;20231;-87
2022/04/13 06:48:38;;;;;;;2.97;2.73;;;;;;;;;;4940888;29;20216;-86
2022/04/13 06:51:08;;;;;;;3.50;2.33;;;;;;;;;;4940415;29;20218;-86
2022/04/13 06:53:37;;;;;;;2.20;1.77;;;;;;;;;;4940357;29;20333;-86
2022/04/13 06:56:06;;;;;;;5.40;3.40;;;;;;;;;;4940576;29;20242;-86
2022/04/13 06:58:34;;;;;;;2.20;2.10;;;;;;;;;;4940504;29;20204;-87
2022/04/13 07:01:10;;;;;;;4.97;3.63;;;;;;;;;;4942811;28;20201;-86
2022/04/13 07:03:47;;;;;;;1.73;1.63;;;;;;;;;;4950672;28;20212;-87
2022/04/13 07:06:21;;;;;;;5.03;1.93;;;;;;;;;;4953866;28;20234;-87
2022/04/13 07:09:09;;;;;;;1.67;1.57;;;;;;;;;;4950970;28;20202;-88
2022/04/13 07:11:38;;;;;;;7.90;3.70;;;;;;;;;;4951557;29;20237;-87
2022/04/13 07:14:20;;;;;;;6.93;3.00;;;;;;;;;;4957347;28;20246;-88
2022/04/13 07:17:24;;;;;;;8.20;4.10;;;;;;;;;;4932105;28;20204;-88
2022/04/13 07:19:58;;;;;;;3.80;3.43;;;;;;;;;;4950313;28;20216;-88
2022/04/13 07:22:56;;;;;;;1.43;1.33;;;;;;;;;;4952905;28;20206;-86
2022/04/13 07:32:29;;;;;;;2.13;1.70;;;;;;;;;;4967256;28;20223;-87
2022/04/13 07:42:53;;;;;;;8.67;4.70;;;;;;;;;;4781203;29;20208;-87
2022/04/13 07:45:24;;;;;;;7.33;4.77;;;;;;;;;;4721667;30;20278;-88
2022/04/13 07:47:57;;;;;;;3.03;2.67;;;;;;;;;;4819681;29;20266;-88
2022/04/13 07:50:30;;;;;;;6.00;3.60;;;;;;;;;;4889497;29;20211;-88
2022/04/13 07:53:02;;;;;;;2.20;1.70;;;;;;;;;;4885004;29;20290;-88
2022/04/13 07:55:31;;;;;;;0.83;0.83;;;;;;;;;;4890421;29;20204;-87
2022/04/13 08:02:34;;;;;;;2.00;1.90;;;;;;;;;;4818550;29;20213;-88
2022/04/13 08:05:41;;;;;;;2.47;2.27;;;;;;;;;;4911133;29;20226;-87
2022/04/13 08:08:34;;;;;;;5.13;2.87;;;;;;;;;;4892943;29;20256;-87
2022/04/13 08:11:40;;;;;;;7.10;2.83;;;;;;;;;;4895042;29;20211;-88
2022/04/13 08:17:59;;;;;;;4.23;3.23;;;;;;;;;;4887390;29;20202;-88
2022/04/13 08:20:34;;;;;;;2.27;2.00;;;;;;;;;;4917250;29;20215;-88
2022/04/13 08:23:04;;;;;;;7.53;3.90;;;;;;;;;;4897523;29;20237;-86
2022/04/13 08:25:34;;;;;;;4.83;3.93;;;;;;;;;;4896553;29;20251;-86
2022/04/13 08:28:05;;;;;;;4.83;3.63;;;;;;;;;;4914109;29;20254;-87
2022/04/13 08:30:34;;;;;;;5.57;3.83;;;;;;;;;;4896923;29;20249;-86
2022/04/13 08:33:05;;;;;;;4.87;3.17;;;;;;;;;;4897658;29;20214;-87
2022/04/13 08:35:37;;;;;;;4.97;3.13;;;;;;;;;;4896329;29;20262;-88
2022/04/13 08:38:07;;;;;;;3.77;3.47;;;;;;;;;;4912510;28;20295;-87
2022/04/13 08:40:40;;;;;;;10.13;4.23;;;;;;;;;;4963366;28;20212;-88
2022/04/13 08:43:12;;;;;;;9.27;7.13;;;;;;;;;;4950113;28;20212;-88
2022/04/13 08:45:50;;;;;;;7.03;2.80;;;;;;;;;;4952257;28;20236;-88
2022/04/13 08:48:29;;;;;;;1.13;1.10;;;;;;;;;;4947645;28;20244;-87
2022/04/13 08:51:02;;;;;;;1.30;1.20;;;;;;;;;;4965853;28;20200;-87
2022/04/13 08:53:32;;;;;;;3.43;2.67;;;;;;;;;;4945897;28;20209;-88
2022/04/13 08:56:09;;;;;;;2.93;1.70;;;;;;;;;;4954077;28;20207;-86
2022/04/13 08:58:46;;;;;;;4.80;2.60;;;;;;;;;;4939796;28;20197;-88
2022/04/13 09:01:20;;;;;;;3.07;1.87;;;;;;;;;;4952147;28;20212;-88
2022/04/13 09:03:54;;;;;;;4.33;3.10;;;;;;;;;;4950464;29;20209;-88
2022/04/13 09:06:27;;;;;;;10.90;5.43;;;;;;;;;;4947601;28;20225;-87
2022/04/13 09:09:02;;;;;;;5.27;4.47;;;;;;;;;;4970309;28;20208;-88
2022/04/13 09:11:39;;;;;;;9.27;3.67;;;;;;;;;;4950079;28;20295;-87
2022/04/13 09:14:15;;;;;;;7.40;2.50;;;;;;;;;;4954147;28;20283;-88
2022/04/13 09:16:57;;;;;;;1.17;1.17;;;;;;;;;;4952912;28;20205;-88
2022/04/13 09:19:26;;;;;;;3.07;2.70;;;;;;;;;;4953066;28;20244;-88
2022/04/13 09:21:56;;;;;;;2.63;2.47;;;;;;;;;;4953498;28;20201;-85
2022/04/13 09:24:39;;;;;;;2.83;2.20;;;;;;;;;;4951433;28;20206;-88
2022/04/13 09:27:13;;;;;;;6.13;3.83;;;;;;;;;;4946936;29;20233;-86
2022/04/13 09:29:47;;;;;;;1.27;1.17;;;;;;;;;;4947452;29;20213;-88
2022/04/13 09:32:17;;;;;;;3.30;2.10;;;;;;;;;;4950865;29;20266;-90
2022/04/13 09:34:51;;;;;;;12.10;5.07;;;;;;;;;;4955650;28;20498;-86
2022/04/13 09:37:23;;;;;;;1.70;1.37;;;;;;;;;;4950982;29;20478;-87
2022/04/13 09:39:55;;;;;;;2.03;1.83;;;;;;;;;;4941436;29;20415;-87
2022/04/13 09:42:36;;;;;;;4.23;3.43;;;;;;;;;;4946900;29;20212;-87
2022/04/13 09:45:09;;;;;;;3.10;2.57;;;;;;;;;;4950275;28;20277;-86
2022/04/13 09:47:47;;;;;;;1.73;1.63;;;;;;;;;;4945022;29;20226;-88
2022/04/13 09:50:25;;;;;;;4.07;3.03;;;;;;;;;;4949557;29;20206;-88
2022/04/13 09:53:05;;;;;;;5.40;2.83;;;;;;;;;;4967141;28;20218;-88
2022/04/13 09:55:42;;;;;;;3.70;2.17;;;;;;;;;;4950654;29;20234;-88
2022/04/13 09:58:14;;;;;;;8.93;4.17;;;;;;;;;;4948629;29;20208;-87
2022/04/13 10:00:48;;;;;;;2.33;2.13;;;;;;;;;;4968206;28;20222;-87
2022/04/13 10:03:20;;;;;;;4.43;2.93;;;;;;;;;;4953240;28;20210;-88
2022/04/13 10:05:50;;;;;;;6.03;2.43;;;;;;;;;;4950103;29;20241;-89
2022/04/13 10:08:22;;;;;;;7.47;2.77;;;;;;;;;;4948814;29;20261;-88
2022/04/13 10:10:51;;;;;;;1.77;1.47;;;;;;;;;;4948694;29;20202;-88
2022/04/13 10:13:32;;;;;;;4.73;2.33;;;;;;;;;;4951903;29;20198;-87
2022/04/13 10:16:09;;;;;;;2.33;2.13;;;;;;;;;;4949401;29;20221;-87
2022/04/13 10:18:57;;;;;;;5.23;2.60;;;;;;;;;;4948402;29;20195;-88
2022/04/13 10:21:41;;;;;;;3.33;2.23;;;;;;;;;;4942261;29;20218;-87
2022/04/13 10:24:13;;;;;;;4.03;1.67;;;;;;;;;;4947237;29;20299;-88
2022/04/13 10:27:02;;;;;;;2.80;1.33;;;;;;;;;;4941180;29;20248;-89
2022/04/13 10:29:39;;;;;;;3.73;3.17;;;;;;;;;;4946721;29;20205;-87
2022/04/13 10:32:11;;;;;;;2.23;2.03;;;;;;;;;;4949101;29;20244;-88
2022/04/13 10:34:45;;;;;;;6.17;1.47;;;;;;;;;;4950232;29;20206;-88
2022/04/13 10:37:18;;;;;;;2.50;2.30;;;;;;;;;;4951536;29;20210;-87
2022/04/13 10:39:49;;;;;;;1.93;1.73;;;;;;;;;;4950503;29;20212;-88
2022/04/13 10:42:34;;;;;;;3.70;3.40;;;;;;;;;;4971246;28;20277;-88
2022/04/13 10:45:15;;;;;;;8.60;4.27;;;;;;;;;;4949134;29;20234;-87
2022/04/13 10:47:51;;;;;;;4.50;3.00;;;;;;;;;;4966228;28;20214;-88
2022/04/13 10:50:30;;;;;;;2.20;1.93;;;;;;;;;;4952244;29;20237;-87
2022/04/13 10:53:00;;;;;;;1.60;1.50;;;;;;;;;;4948140;29;20209;-87
2022/04/13 10:55:37;;;;;;;2.50;2.27;;;;;;;;;;4951918;29;20214;-88
2022/04/13 10:58:12;;;;;;;1.47;1.10;;;;;;;;;;4953044;28;20194;-88
2022/04/13 11:00:46;;;;;;;2.93;2.30;;;;;;;;;;4952601;29;20723;-87
2022/04/13 11:03:17;;;;;;;4.50;2.10;;;;;;;;;;4948577;29;20227;-88
2022/04/13 11:05:47;;;;;;;3.33;1.63;;;;;;;;;;4953693;29;20292;-88
2022/04/13 11:08:20;;;;;;;2.43;2.23;;;;;;;;;;4951170;29;20307;-87
2022/04/13 11:10:49;;;;;;;5.87;2.67;;;;;;;;;;4952555;29;20214;-88
2022/04/13 11:13:19;;;;;;;3.67;2.30;;;;;;;;;;4953985;29;20233;-87
2022/04/13 11:15:52;;;;;;;3.00;2.40;;;;;;;;;;4952258;29;20211;-87
2022/04/13 11:18:23;;;;;;;2.10;1.27;;;;;;;;;;4947404;28;20206;-89
2022/04/13 11:21:10;;;;;;;3.77;2.30;;;;;;;;;;4949788;28;20239;-88
2022/04/13 11:23:52;;;;;;;4.00;2.93;;;;;;;;;;4954083;29;20249;-88
2022/04/13 11:26:28;;;;;;;3.63;2.10;;;;;;;;;;4948848;28;20256;-87
2022/04/13 11:29:14;;;;;;;5.07;3.17;;;;;;;;;;4955555;28;20225;-88
2022/04/13 11:31:57;;;;;;;1.53;1.27;;;;;;;;;;4954443;28;20304;-90
2022/04/13 11:34:40;;;;;;;3.97;2.80;;;;;;;;;;4946433;28;20198;-89
2022/04/13 11:37:16;;;;;;;1.50;1.37;;;;;;;;;;4972374;28;20205;-88
2022/04/13 11:39:52;;;;;;;2.27;1.47;;;;;;;;;;4969297;28;20254;-90
2022/04/13 11:42:46;;;;;;;7.90;3.30;;;;;;;;;;4954496;28;20211;-89
2022/04/13 11:45:15;;;;;;;7.10;3.47;;;;;;;;;;4955530;28;20197;-88
2022/04/13 11:47:45;;;;;;;1.27;1.17;;;;;;;;;;4953561;28;20281;-89
2022/04/13 11:50:24;;;;;;;4.33;2.37;;;;;;;;;;4952388;28;20205;-88
2022/04/13 11:52:54;;;;;;;4.77;2.10;;;;;;;;;;4954648;28;20304;-86
2022/04/13 11:55:25;;;;;;;5.70;3.07;;;;;;;;;;4966319;28;20202;-87
2022/04/13 11:58:03;;;;;;;4.13;1.90;;;;;;;;;;4947262;28;20198;-87
2022/04/13 12:00:39;;;;;;;4.23;2.43;;;;;;;;;;4969192;28;20208;-86
2022/04/13 12:03:08;;;;;;;2.07;1.53;;;;;;;;;;4950504;28;20201;-88
2022/04/13 12:05:39;;;;;;;4.17;2.53;;;;;;;;;;4956745;28;20266;-88
2022/04/13 12:08:11;;;;;;;4.67;2.20;;;;;;;;;;4948330;28;20205;-87
2022/04/13 12:10:48;;;;;;;3.50;1.97;;;;;;;;;;4969632;28;20212;-88
2022/04/13 12:13:17;;;;;;;4.17;3.77;;;;;;;;;;4954390;28;20203;-87
2022/04/13 12:15:50;;;;;;;2.73;1.57;;;;;;;;;;4967479;28;20205;-88
2022/04/13 12:18:23;;;;;;;7.30;1.37;;;;;;;;;;4954298;28;20238;-87
2022/04/13 12:21:07;;;;;;;2.17;1.57;;;;;;;;;;4969802;28;20323;-90
2022/04/13 12:23:37;;;;;;;3.43;2.40;;;;;;;;;;4971154;28;20201;-88
2022/04/13 12:26:31;;;;;;;3.07;1.80;;;;;;;;;;4968978;28;20201;-90
2022/04/13 12:29:02;;;;;;;2.77;2.00;;;;;;;;;;4964232;28;20237;-88
2022/04/13 12:31:31;;;;;;;2.60;2.03;;;;;;;;;;4949116;28;20198;-88
2022/04/13 12:34:03;;;;;;;2.07;1.60;;;;;;;;;;4948169;28;20203;-89
2022/04/13 12:36:34;;;;;;;1.87;1.77;;;;;;;;;;4957241;28;20206;-88
2022/04/13 12:39:03;;;;;;;6.57;2.33;;;;;;;;;;4952859;28;20216;-89
2022/04/13 12:41:33;;;;;;;4.33;1.80;;;;;;;;;;4974298;28;20279;-89
2022/04/13 12:44:01;;;;;;;11.23;3.07;;;;;;;;;;4950431;28;20206;-88
2022/04/13 12:46:31;;;;;;;1.63;1.43;;;;;;;;;;4954661;28;20209;-89
2022/04/13 12:49:08;;;;;;;3.00;2.73;;;;;;;;;;4943863;28;20215;-88
2022/04/13 12:51:49;;;;;;;5.13;3.00;;;;;;;;;;4952083;28;20197;-89
2022/04/13 12:54:29;;;;;;;3.87;1.87;;;;;;;;;;4954502;28;20205;-87
2022/04/13 12:57:04;;;;;;;2.83;2.23;;;;;;;;;;4974012;28;20213;-88
2022/04/13 12:59:38;;;;;;;3.43;2.13;;;;;;;;;;4951889;28;20285;-88
2022/04/13 13:02:09;;;;;;;4.40;1.90;;;;;;;;;;4979119;28;20272;-88
2022/04/13 13:04:47;;;;;;;4.63;2.17;;;;;;;;;;4953218;28;20232;-89
2022/04/13 13:07:33;;;;;;;2.50;1.90;;;;;;;;;;4947475;28;20495;-88
2022/04/13 13:10:04;;;;;;;9.83;2.67;;;;;;;;;;4966444;28;20227;-87
2022/04/13 13:12:36;;;;;;;7.07;4.10;;;;;;;;;;4953149;28;20229;-87
2022/04/13 13:15:20;;;;;;;2.17;1.80;;;;;;;;;;4971330;28;20300;-88
2022/04/13 13:17:51;;;;;;;2.43;2.03;;;;;;;;;;4969285;28;20210;-89
2022/04/13 13:20:20;;;;;;;3.67;1.63;;;;;;;;;;4950779;28;20253;-86
2022/04/13 13:22:52;;;;;;;1.53;1.43;;;;;;;;;;4957885;28;20208;-87
2022/04/13 13:25:26;;;;;;;2.50;2.30;;;;;;;;;;4949983;28;20210;-87
2022/04/13 13:28:05;;;;;;;1.10;1.03;;;;;;;;;;4970494;28;20237;-89
2022/04/13 13:30:45;;;;;;;1.63;1.53;;;;;;;;;;4967598;28;20282;-87
2022/04/13 13:33:46;;;;;;;1.70;1.60;;;;;;;;;;4951422;28;20217;-88
2022/04/13 13:36:15;;;;;;;1.40;1.30;;;;;;;;;;4954199;28;20201;-86
2022/04/13 13:38:49;;;;;;;2.60;2.33;;;;;;;;;;4948164;28;20206;-86
2022/04/13 13:41:21;;;;;;;1.63;1.50;;;;;;;;;;4967974;28;20320;-84
2022/04/13 13:43:51;;;;;;;1.77;1.67;;;;;;;;;;4979273;28;20204;-85
2022/04/13 13:46:27;;;;;;;2.53;1.50;;;;;;;;;;4955394;28;20211;-86
2022/04/13 13:49:03;;;;;;;1.93;1.77;;;;;;;;;;4954004;28;20201;-86
2022/04/13 13:51:36;;;;;;;2.90;1.40;;;;;;;;;;4967649;28;20199;-86
2022/04/13 13:54:10;;;;;;;1.27;1.17;;;;;;;;;;4952821;28;20253;-88
2022/04/13 13:56:49;;;;;;;1.70;1.60;;;;;;;;;;4967869;28;20217;-87
2022/04/13 13:59:37;;;;;;;2.13;1.43;;;;;;;;;;4952975;28;20208;-87
2022/04/13 14:02:10;;;;;;;7.97;2.60;;;;;;;;;;4954565;28;20262;-88
2022/04/13 14:04:39;;;;;;;1.80;1.67;;;;;;;;;;4958846;28;20217;-87
2022/04/13 14:07:07;;;;;;;2.07;1.47;;;;;;;;;;4970400;28;20222;-87
2022/04/13 14:09:39;;;;;;;1.87;1.33;;;;;;;;;;4958291;28;20221;-87
2022/04/13 14:12:18;;;;;;;0.90;0.90;;;;;;;;;;4965837;28;20206;-88
2022/04/13 14:14:48;;;;;;;1.47;1.37;;;;;;;;;;4954592;28;20197;-88
2022/04/13 14:17:25;;;;;;;1.37;0.97;;;;;;;;;;4955498;28;20197;-90
2022/04/13 14:23:51;;;;;;;1.20;1.03;;;;;;;;;;4867424;28;20311;-88
2022/04/13 14:26:49;;;;;;;1.13;1.03;;;;;;;;;;4950177;28;20229;-89
2022/04/13 14:30:11;;;;;;;1.40;1.30;;;;;;;;;;4956227;28;20225;-89
2022/04/13 14:32:47;;;;;;;0.93;0.93;;;;;;;;;;4874952;29;20214;-88
2022/04/13 14:36:09;;;;;;;0.90;0.90;;;;;;;;;;4882989;28;20209;-88
2022/04/13 14:39:07;;;;;;;2.10;1.00;;;;;;;;;;4946245;28;20224;-88
2022/04/13 14:48:17;;;;;;;8.53;2.10;;;;;;;;;;4946139;28;20205;-87
2022/04/13 14:51:22;;;;;;;2.40;2.30;;;;;;;;;;4957874;28;20230;-89
2022/04/13 14:54:05;;;;;;;5.27;1.87;;;;;;;;;;4954186;28;20214;-88
2022/04/13 14:56:45;;;;;;;1.60;1.50;;;;;;;;;;4952134;28;20300;-89
2022/04/13 14:59:23;;;;;;;2.33;1.60;;;;;;;;;;4949950;28;20302;-89
2022/04/13 15:01:56;;;;;;;2.47;1.47;;;;;;;;;;4953678;28;20204;-88
2022/04/13 15:04:26;;;;;;;1.80;1.13;;;;;;;;;;4952003;28;20265;-87
2022/04/13 15:06:57;;;;;;;2.27;2.10;;;;;;;;;;4948180;28;20317;-88
2022/04/13 15:09:25;;;;;;;2.33;2.00;;;;;;;;;;4948696;28;20215;-88
2022/04/13 15:12:00;;;;;;;3.30;0.93;;;;;;;;;;4951959;28;20217;-89
2022/04/13 15:14:30;;;;;;;1.70;0.93;;;;;;;;;;4952445;28;20209;-88
2022/04/13 15:16:58;;;;;;;4.53;1.30;;;;;;;;;;4950872;28;20202;-87
2022/04/13 15:19:29;;;;;;;0.97;0.53;;;;;;;;;;4957383;28;20205;-86
2022/04/13 15:21:57;;;;;;;2.57;2.20;;;;;;;;;;4970478;28;20214;-86
2022/04/13 15:24:27;;;;;;;1.40;1.27;;;;;;;;;;4954338;28;20257;-86
2022/04/13 15:26:58;;;;;;;0.87;0.87;;;;;;;;;;4951077;28;20295;-86
2022/04/13 15:29:27;;;;;;;1.23;0.97;;;;;;;;;;4966815;28;20244;-87
2022/04/13 15:31:56;;;;;;;1.23;0.70;;;;;;;;;;4952825;28;20249;-87
2022/04/13 15:34:27;;;;;;;1.80;1.33;;;;;;;;;;4945922;28;20199;-86
2022/04/13 15:36:57;;;;;;;0.70;0.70;;;;;;;;;;4948559;28;20193;-87
2022/04/13 15:39:26;;;;;;;0.93;0.90;;;;;;;;;;4951585;28;20267;-87
2022/04/13 15:41:54;;;;;;;1.10;1.07;;;;;;;;;;4952659;28;20286;-86
2022/04/13 15:44:23;;;;;;;1.90;1.40;;;;;;;;;;4956387;28;20209;-86
2022/04/13 15:46:51;;;;;;;5.77;2.23;;;;;;;;;;4957855;28;20349;-86
2022/04/13 15:49:24;;;;;;;1.37;1.00;;;;;;;;;;4958934;28;20256;-87